Time;durP1;ratioP1;P1;durP2;ratioP2;P2;SDS_P1;SDS_P2;PMS_P1;PMS_P2;Temp;Humidity;BMP_temperature;BMP_pressure;BME280_temperature;BME280_humidity;BME280_pressure;Samples;Min_cycle;Max_cycle;Signal;HPM_P1;HPM_P2
2022/03/24 00:00:55;;;;;;;26.43;18.00;;;8.10;99.90;;;9.08;53.90;-20035.84;5010465;28;20210;-55
2022/03/24 00:03:24;;;;;;;23.93;17.53;;;8.20;99.90;;;8.82;54.42;-20026.97;5010620;28;20216;-57
2022/03/24 00:05:54;;;;;;;25.13;18.33;;;8.10;99.90;;;8.82;54.60;-20027.16;5010001;28;20225;-56
2022/03/24 00:08:22;;;;;;;30.80;18.73;;;8.00;99.90;;;8.60;55.28;-20019.63;5009993;28;20232;-56
2022/03/24 00:10:50;;;;;;;28.43;19.43;;;8.00;99.90;;;8.77;54.75;-20025.44;5010652;28;20639;-58
2022/03/24 00:13:18;;;;;;;27.33;18.73;;;8.00;99.90;;;8.59;55.63;-20019.28;5009873;28;20229;-56
2022/03/24 00:15:46;;;;;;;26.63;18.30;;;7.90;99.90;;;8.63;55.28;-20020.81;5010103;28;20212;-57
2022/03/24 00:18:14;;;;;;;27.33;18.60;;;7.90;99.90;;;8.56;55.42;-20018.44;5010170;28;20255;-58
2022/03/24 00:20:43;;;;;;;24.47;17.87;;;7.80;99.90;;;8.44;55.70;-20014.16;5010339;28;20229;-58
2022/03/24 00:23:11;;;;;;;27.23;17.77;;;7.80;99.90;;;8.49;56.00;-20016.03;5010056;28;20243;-56
2022/03/24 00:25:39;;;;;;;24.27;18.13;;;7.70;99.90;;;8.28;56.52;-20008.88;5010127;28;20812;-56
2022/03/24 00:28:07;;;;;;;24.37;18.30;;;7.70;99.90;;;8.28;56.64;-20008.88;5009582;28;20487;-57
2022/03/24 00:30:36;;;;;;;30.73;19.03;;;7.60;99.90;;;8.33;56.49;-20010.41;5010739;28;20201;-56
2022/03/24 00:33:04;;;;;;;27.27;18.23;;;7.60;99.90;;;8.26;56.62;-20008.00;5009567;28;20256;-57
2022/03/24 00:35:32;;;;;;;29.03;18.73;;;7.60;99.90;;;8.31;56.74;-20009.72;5009439;28;20234;-57
2022/03/24 00:38:02;;;;;;;26.63;18.17;;;7.60;99.90;;;8.25;57.17;-20007.66;5009325;28;20257;-58
2022/03/24 00:40:30;;;;;;;28.63;19.27;;;7.50;99.90;;;8.00;57.75;-19999.13;5010051;28;20221;-56
2022/03/24 00:42:59;;;;;;;28.63;18.57;;;7.50;99.90;;;7.99;57.90;-19998.78;5009874;28;20211;-55
2022/03/24 00:45:27;;;;;;;25.33;18.30;;;7.40;99.90;;;8.14;57.43;-20003.91;5010521;28;20236;-55
2022/03/24 00:47:55;;;;;;;30.23;18.70;;;7.40;99.90;;;8.07;57.62;-20001.50;5009541;28;20224;-57
2022/03/24 00:50:23;;;;;;;26.57;18.13;;;7.40;99.90;;;7.96;58.04;-19997.94;5009670;28;20585;-57
2022/03/24 00:52:51;;;;;;;24.33;18.03;;;7.30;99.90;;;7.94;58.23;-19997.06;5009617;28;20316;-57
2022/03/24 00:55:21;;;;;;;27.63;18.63;;;7.30;99.90;;;7.86;58.84;-19994.34;5009841;28;20228;-58
2022/03/24 00:57:52;;;;;;;25.23;18.60;;;7.20;99.90;;;7.79;59.24;-19991.94;5009292;28;20267;-56
2022/03/24 01:00:25;;;;;;;25.80;19.40;;;7.20;99.90;;;7.71;59.60;-19989.38;5007371;28;20191;-56
2022/03/24 01:02:55;;;;;;;26.63;19.07;;;7.10;99.90;;;7.71;59.38;-19989.22;4989822;28;20319;-56
2022/03/24 01:05:27;;;;;;;24.97;18.53;;;7.10;99.90;;;7.79;59.10;-19992.13;4990001;28;20315;-55
2022/03/24 01:07:56;;;;;;;25.53;19.07;;;7.10;99.90;;;7.66;59.57;-19987.50;4989909;28;20241;-54
2022/03/24 01:10:26;;;;;;;27.60;19.67;;;7.00;99.90;;;7.47;59.93;-19981.34;4993326;28;20228;-57
2022/03/24 01:12:55;;;;;;;25.33;18.67;;;6.90;99.90;;;7.45;60.47;-19980.50;5006382;28;20205;-57
2022/03/24 01:15:23;;;;;;;28.63;19.07;;;6.80;99.90;;;7.57;60.45;-19984.44;5013332;28;20681;-55
2022/03/24 01:17:51;;;;;;;28.87;20.03;;;6.80;99.90;;;7.41;60.96;-19979.13;5012960;28;20229;-55
2022/03/24 01:20:21;;;;;;;31.17;19.40;;;6.80;99.90;;;7.60;60.02;-19985.44;5013560;28;20315;-56
2022/03/24 01:22:49;;;;;;;28.00;18.53;;;6.80;99.90;;;7.50;60.32;-19982.03;5013358;28;20285;-57
2022/03/24 01:25:17;;;;;;;27.63;19.00;;;6.80;99.90;;;7.57;60.08;-19984.59;5013458;28;20249;-54
2022/03/24 01:27:46;;;;;;;27.63;19.13;;;6.80;99.90;;;7.49;60.48;-19981.69;5013855;28;20284;-55
2022/03/24 01:30:14;;;;;;;28.10;17.77;;;6.80;99.90;;;7.47;60.44;-19981.19;5013261;28;20240;-56
2022/03/24 01:32:45;;;;;;;26.23;18.67;;;6.80;99.90;;;7.25;61.34;-19973.84;5013165;28;20315;-55
2022/03/24 01:35:14;;;;;;;24.30;18.17;;;6.70;99.90;;;7.23;61.47;-19973.16;5012951;28;20711;-56
2022/03/24 01:37:44;;;;;;;26.00;18.73;;;6.60;99.90;;;7.22;61.30;-19972.81;5013247;28;20247;-54
2022/03/24 01:40:14;;;;;;;25.00;18.70;;;6.60;99.90;;;7.47;60.82;-19981.00;5013367;28;20230;-55
2022/03/24 01:42:43;;;;;;;28.73;19.27;;;6.60;99.90;;;7.71;60.08;-19989.22;5013252;28;20624;-55
2022/03/24 01:45:13;;;;;;;27.57;18.40;;;6.70;99.90;;;7.55;59.95;-19983.91;5012791;28;20603;-53
2022/03/24 01:47:41;;;;;;;28.10;18.80;;;6.70;99.90;;;7.17;61.51;-19971.09;5012690;28;20259;-54
2022/03/24 01:50:12;;;;;;;29.30;19.23;;;6.60;99.90;;;7.21;61.79;-19972.28;5012758;28;20240;-57
2022/03/24 01:52:40;;;;;;;28.00;19.40;;;6.50;99.90;;;7.13;61.64;-19969.56;5012501;28;20306;-54
2022/03/24 01:55:10;;;;;;;27.10;18.80;;;6.50;99.90;;;7.20;61.54;-19971.94;5012241;28;20205;-57
2022/03/24 01:57:41;;;;;;;29.20;19.40;;;6.50;99.90;;;7.02;62.21;-19965.97;5012955;28;20185;-54
2022/03/24 02:00:12;;;;;;;28.37;19.63;;;6.40;99.90;;;7.27;61.45;-19974.50;5011075;28;20654;-57
2022/03/24 02:02:43;;;;;;;24.70;17.80;;;6.40;99.90;;;7.20;61.42;-19972.13;4992809;28;20738;-54
2022/03/24 02:05:12;;;;;;;27.13;18.80;;;6.40;99.90;;;7.18;61.52;-19971.44;4992400;28;20237;-56
2022/03/24 02:07:40;;;;;;;24.03;18.27;;;6.40;99.90;;;7.02;62.22;-19965.78;4993396;28;20669;-55
2022/03/24 02:10:11;;;;;;;25.90;18.63;;;6.30;99.90;;;6.88;63.14;-19961.19;5012627;28;20228;-58
2022/03/24 02:12:41;;;;;;;31.47;19.47;;;6.30;99.90;;;6.80;63.28;-19958.44;5012714;28;20192;-57
2022/03/24 02:15:12;;;;;;;29.03;19.43;;;6.20;99.90;;;6.64;64.01;-19952.97;5011649;28;20789;-55
2022/03/24 02:17:41;;;;;;;26.97;19.17;;;6.10;99.90;;;6.74;64.04;-19956.41;5011947;28;20301;-58
2022/03/24 02:20:10;;;;;;;27.63;19.77;;;6.00;99.90;;;6.61;64.48;-19951.97;5011612;28;20236;-58
2022/03/24 02:22:40;;;;;;;26.53;19.10;;;6.00;99.90;;;6.51;65.49;-19948.38;5012012;28;20307;-55
2022/03/24 02:25:09;;;;;;;26.23;19.00;;;5.90;99.90;;;6.51;65.92;-19948.53;5012167;28;20415;-59
2022/03/24 02:27:39;;;;;;;27.43;19.50;;;5.80;99.90;;;6.55;65.38;-19949.72;5012121;28;20239;-58
2022/03/24 02:30:10;;;;;;;25.73;19.40;;;5.80;99.90;;;6.64;65.41;-19952.81;5012054;28;20274;-56
2022/03/24 02:32:38;;;;;;;28.47;18.47;;;5.80;99.90;;;6.63;65.73;-19952.47;5012073;28;20240;-56
2022/03/24 02:35:07;;;;;;;27.77;19.03;;;5.80;99.90;;;6.47;66.06;-19947.00;5012182;28;20252;-58
2022/03/24 02:37:36;;;;;;;27.40;18.17;;;5.80;99.90;;;6.51;66.26;-19948.38;5012126;28;20233;-56
2022/03/24 02:40:07;;;;;;;24.37;18.53;;;5.80;99.90;;;6.36;66.86;-19943.41;5011524;28;20318;-57
2022/03/24 02:42:38;;;;;;;27.10;19.47;;;5.70;99.90;;;6.30;67.48;-19941.38;5012517;28;20215;-54
2022/03/24 02:45:10;;;;;;;26.70;19.70;;;5.60;99.90;;;6.26;68.04;-19939.81;5011737;28;20317;-55
2022/03/24 02:47:38;;;;;;;26.87;19.00;;;5.60;99.90;;;6.27;68.28;-19940.16;5011508;28;20255;-57
2022/03/24 02:50:09;;;;;;;30.17;19.90;;;5.50;99.90;;;6.48;66.99;-19947.34;5011360;28;20317;-54
2022/03/24 02:52:37;;;;;;;28.83;20.13;;;5.60;99.90;;;6.77;65.77;-19957.44;5012299;28;20230;-56
2022/03/24 02:55:09;;;;;;;27.07;18.97;;;5.70;99.90;;;6.86;64.94;-19960.34;5011441;28;20203;-55
2022/03/24 02:57:37;;;;;;;26.80;18.87;;;5.80;99.90;;;7.09;63.97;-19968.38;5012019;28;20184;-53
2022/03/24 03:00:08;;;;;;;27.40;19.80;;;5.90;99.90;;;7.09;63.78;-19968.19;5010303;28;20232;-54
2022/03/24 03:02:37;;;;;;;27.37;19.40;;;6.00;99.90;;;7.00;63.59;-19965.28;4992020;28;20307;-56
2022/03/24 03:05:07;;;;;;;27.73;19.50;;;6.00;99.90;;;7.06;63.94;-19967.16;4991428;28;20313;-53
2022/03/24 03:07:35;;;;;;;26.83;19.30;;;6.10;99.90;;;7.15;63.05;-19970.41;4991876;28;20707;-54
2022/03/24 03:10:04;;;;;;;29.77;19.70;;;6.10;99.90;;;6.73;64.33;-19956.06;5011138;28;20199;-53
2022/03/24 03:12:34;;;;;;;29.87;19.77;;;6.00;99.90;;;6.65;65.43;-19953.31;5011763;28;20205;-53
2022/03/24 03:15:02;;;;;;;29.27;19.77;;;5.90;99.90;;;6.67;65.06;-19954.00;5010884;28;20259;-55
2022/03/24 03:17:30;;;;;;;27.10;19.30;;;5.90;99.90;;;6.26;66.81;-19939.81;5011142;28;20228;-55
2022/03/24 03:19:58;;;;;;;31.67;20.33;;;5.70;99.90;;;6.18;67.47;-19937.44;5011313;28;20277;-55
2022/03/24 03:22:27;;;;;;;26.70;20.17;;;5.60;99.90;;;6.29;67.40;-19940.84;5011403;28;20619;-57
2022/03/24 03:24:55;;;;;;;31.73;20.87;;;5.50;99.90;;;6.59;65.68;-19951.28;5011160;28;20210;-55
2022/03/24 03:27:24;;;;;;;28.93;20.07;;;5.50;99.90;;;6.70;64.88;-19955.03;5011820;28;20363;-56
2022/03/24 03:29:53;;;;;;;30.53;20.30;;;5.60;99.90;;;6.88;64.22;-19961.19;5010944;28;20230;-55
2022/03/24 03:32:21;;;;;;;32.50;20.83;;;5.70;99.90;;;6.80;64.54;-19958.28;5010392;28;20865;-57
2022/03/24 03:34:49;;;;;;;32.70;21.67;;;5.70;99.90;;;6.81;64.49;-19958.63;5010816;28;20679;-53
2022/03/24 03:37:17;;;;;;;30.33;20.20;;;5.70;99.90;;;6.68;64.67;-19954.19;5010883;28;20231;-56
2022/03/24 03:39:45;;;;;;;32.03;20.70;;;5.70;99.90;;;6.48;65.83;-19947.50;5011334;28;20325;-56
2022/03/24 03:42:13;;;;;;;29.50;21.30;;;5.60;99.90;;;6.51;65.91;-19948.53;5010402;28;20258;-57
2022/03/24 03:44:41;;;;;;;28.53;21.10;;;5.60;99.90;;;6.36;66.80;-19943.41;5010527;28;20606;-57
2022/03/24 03:47:10;;;;;;;34.90;21.37;;;5.50;99.90;;;6.34;67.08;-19942.72;5010181;28;20767;-56
2022/03/24 03:49:38;;;;;;;30.10;20.50;;;5.40;99.90;;;6.42;66.83;-19945.28;5010724;28;20249;-56
2022/03/24 03:52:26;;;;;;;30.13;20.47;;;5.40;99.90;;;6.52;66.86;-19948.72;5010755;28;20753;-58
2022/03/24 03:54:54;;;;;;;28.27;20.37;;;5.40;99.90;;;6.29;67.73;-19941.03;5010609;28;20296;-59
2022/03/24 03:57:22;;;;;;;30.17;20.47;;;5.40;99.90;;;6.14;68.59;-19936.06;5010711;28;20206;-55
2022/03/24 03:59:50;;;;;;;29.43;20.87;;;5.30;99.90;;;6.27;67.99;-19940.34;5010115;28;20314;-55
2022/03/24 04:02:19;;;;;;;31.63;20.63;;;5.30;99.90;;;6.40;67.68;-19944.59;4990515;28;20329;-58
2022/03/24 04:04:48;;;;;;;30.07;19.90;;;5.40;99.90;;;6.24;68.56;-19939.31;4990540;28;20317;-56
2022/03/24 04:07:16;;;;;;;30.67;21.40;;;5.30;99.90;;;6.13;69.21;-19935.72;4990679;28;20268;-55
2022/03/24 04:09:44;;;;;;;32.73;20.27;;;5.20;99.90;;;6.35;68.81;-19943.06;5009045;28;20226;-55
2022/03/24 04:12:13;;;;;;;30.47;20.43;;;5.30;99.90;;;6.25;69.13;-19939.66;5010331;28;20319;-54
2022/03/24 04:14:41;;;;;;;33.20;21.23;;;5.20;99.90;;;6.13;68.93;-19935.56;5010017;28;20247;-58
2022/03/24 04:17:09;;;;;;;36.77;21.40;;;5.30;99.90;;;6.12;69.77;-19935.22;5010291;28;20367;-59
2022/03/24 04:19:38;;;;;;;28.80;20.13;;;5.20;99.90;;;6.22;69.49;-19938.63;5010525;28;20230;-55
2022/03/24 04:22:06;;;;;;;32.27;20.97;;;5.20;99.90;;;6.19;70.36;-19937.59;5010337;28;20220;-59
2022/03/24 04:24:34;;;;;;;29.27;21.57;;;5.20;99.90;;;6.15;70.85;-19936.25;5010734;28;20653;-56
2022/03/24 04:27:03;;;;;;;31.47;20.77;;;5.20;99.90;;;6.15;71.40;-19936.41;5010020;28;20253;-55
2022/03/24 04:29:31;;;;;;;28.30;21.43;;;5.20;99.90;;;5.99;71.79;-19930.75;5009960;28;20227;-53
2022/03/24 04:31:59;;;;;;;31.70;20.47;;;5.10;99.90;;;5.92;72.68;-19928.53;5010493;28;20332;-56
2022/03/24 04:34:27;;;;;;;32.83;21.53;;;5.00;99.90;;;5.86;72.60;-19926.31;5010123;28;20282;-58
2022/03/24 04:36:57;;;;;;;32.37;21.67;;;5.00;99.90;;;5.94;72.69;-19929.22;5009434;28;20220;-57
2022/03/24 04:39:24;;;;;;;29.47;21.50;;;5.00;99.90;;;6.00;72.43;-19931.13;5010618;28;20225;-57
2022/03/24 04:41:52;;;;;;;30.87;20.80;;;5.00;99.90;;;6.01;72.51;-19931.44;5009597;28;20742;-57
2022/03/24 04:44:24;;;;;;;29.30;20.40;;;5.00;99.90;;;5.81;73.17;-19924.78;5013036;28;20308;-57
2022/03/24 04:46:52;;;;;;;30.37;20.83;;;4.90;99.90;;;5.95;72.78;-19929.41;5013942;28;20228;-55
2022/03/24 04:49:20;;;;;;;32.07;21.73;;;4.90;99.90;;;5.93;72.74;-19928.88;5014250;28;20251;-57
2022/03/24 04:51:48;;;;;;;32.13;21.20;;;4.90;99.90;;;5.89;72.60;-19927.34;5014583;28;20212;-56
2022/03/24 04:54:18;;;;;;;31.03;21.23;;;4.90;99.90;;;5.79;72.85;-19924.09;5014223;28;20223;-58
2022/03/24 04:56:46;;;;;;;29.03;20.40;;;4.80;99.90;;;5.65;73.35;-19919.31;5013442;28;20237;-57
2022/03/24 04:59:15;;;;;;;30.63;21.40;;;4.70;99.90;;;5.72;73.10;-19921.53;5013566;28;20239;-57
2022/03/24 05:01:43;;;;;;;33.90;21.63;;;4.70;99.90;;;5.57;73.86;-19916.41;4999656;28;20271;-53
2022/03/24 05:04:11;;;;;;;37.03;22.13;;;4.70;99.90;;;5.56;74.10;-19916.25;4993867;28;20321;-55
2022/03/24 05:06:39;;;;;;;31.13;21.60;;;4.60;99.90;;;5.50;74.18;-19914.00;4994595;28;20213;-56
2022/03/24 05:09:07;;;;;;;35.27;22.37;;;4.60;99.90;;;5.58;74.00;-19916.75;5006451;28;20225;-56
2022/03/24 05:11:36;;;;;;;33.03;22.63;;;4.60;99.90;;;5.36;75.57;-19909.41;5013396;28;20233;-54
2022/03/24 05:14:04;;;;;;;32.50;22.13;;;4.50;99.90;;;5.25;76.19;-19905.47;5013269;28;20222;-57
2022/03/24 05:16:32;;;;;;;31.30;22.40;;;4.40;99.90;;;5.46;75.47;-19912.66;5013260;28;20229;-56
2022/03/24 05:19:00;;;;;;;30.77;20.70;;;4.50;99.90;;;5.35;76.43;-19909.06;5013354;28;20292;-56
2022/03/24 05:21:31;;;;;;;35.53;22.00;;;4.40;99.90;;;5.41;76.34;-19910.94;5014414;28;20217;-58
2022/03/24 05:24:01;;;;;;;31.17;21.97;;;4.40;99.90;;;5.07;77.33;-19899.31;5013415;28;20241;-55
2022/03/24 05:26:29;;;;;;;33.10;22.87;;;4.40;99.90;;;5.16;78.10;-19902.41;5013466;28;20658;-58
2022/03/24 05:28:58;;;;;;;33.07;22.30;;;4.30;99.90;;;5.15;77.88;-19902.03;5012964;28;20257;-56
2022/03/24 05:31:26;;;;;;;35.00;21.97;;;4.30;99.90;;;4.86;79.19;-19892.31;5013067;28;20254;-57
2022/03/24 05:33:54;;;;;;;32.17;21.93;;;4.20;99.90;;;4.84;79.78;-19891.78;5012654;28;20535;-57
2022/03/24 05:36:22;;;;;;;34.23;23.43;;;4.20;99.90;;;5.01;79.49;-19897.44;5012944;28;20205;-55
2022/03/24 05:38:55;;;;;;;34.87;22.10;;;4.10;99.90;;;5.27;78.01;-19906.16;5012161;28;20231;-56
2022/03/24 05:41:23;;;;;;;30.87;21.97;;;4.30;99.90;;;5.33;77.63;-19908.19;5012319;28;20238;-57
2022/03/24 05:44:03;;;;;;;32.53;21.90;;;4.30;99.90;;;5.31;76.87;-19907.53;5012120;28;20222;-56
2022/03/24 05:46:44;;;;;;;33.03;23.07;;;4.40;99.90;;;5.03;78.37;-19898.13;5012314;28;20605;-55
2022/03/24 05:49:16;;;;;;;31.90;21.93;;;4.40;99.90;;;5.41;76.82;-19910.94;5012416;28;20227;-56
2022/03/24 05:51:45;;;;;;;28.63;20.80;;;4.40;99.90;;;5.37;76.61;-19909.56;5013285;28;20225;-57
2022/03/24 05:54:16;;;;;;;29.60;22.80;;;4.50;99.90;;;5.51;75.94;-19914.34;5011994;28;20232;-55
2022/03/24 05:56:46;;;;;;;32.43;22.60;;;4.60;99.90;;;5.28;76.94;-19906.50;5012192;28;20233;-56
2022/03/24 05:59:15;;;;;;;30.50;21.73;;;4.60;99.90;;;5.23;77.79;-19904.94;5012146;28;20218;-57
2022/03/24 06:01:47;;;;;;;32.63;21.90;;;4.60;99.90;;;5.79;74.45;-19924.09;4998394;28;20223;-56
2022/03/24 06:04:18;;;;;;;35.93;22.83;;;4.70;99.90;;;5.78;74.70;-19923.75;4996370;28;20398;-55
2022/03/24 06:06:46;;;;;;;32.10;21.37;;;4.80;99.90;;;5.83;74.40;-19925.31;5012848;28;20301;-56
2022/03/24 06:09:14;;;;;;;34.77;22.33;;;4.90;99.90;;;6.07;73.24;-19933.50;5012132;28;20229;-55
2022/03/24 06:11:42;;;;;;;30.37;21.80;;;5.00;99.90;;;5.92;73.41;-19928.38;5011859;28;20233;-57
2022/03/24 06:14:10;;;;;;;32.63;22.00;;;5.00;99.90;;;6.02;72.66;-19931.97;5011268;28;20245;-55
2022/03/24 06:16:38;;;;;;;32.97;22.00;;;5.10;99.90;;;5.78;73.78;-19923.59;5011696;28;20712;-57
2022/03/24 06:19:09;;;;;;;31.30;21.97;;;5.10;99.90;;;5.70;74.99;-19920.84;5011446;28;20693;-56
2022/03/24 06:21:38;;;;;;;29.43;21.33;;;5.00;99.90;;;5.79;74.85;-19923.94;5012331;28;20235;-56
2022/03/24 06:24:08;;;;;;;31.60;21.77;;;5.10;99.90;;;5.85;75.10;-19926.16;5012882;28;20394;-57
2022/03/24 06:26:37;;;;;;;34.50;22.73;;;5.20;99.90;;;6.05;74.04;-19932.81;5012772;28;20230;-55
2022/03/24 06:29:06;;;;;;;33.80;22.10;;;5.20;99.90;;;6.22;73.18;-19938.63;5012029;28;20274;-58
2022/03/24 06:31:34;;;;;;;32.53;22.30;;;5.30;99.90;;;6.42;72.39;-19945.47;5012144;28;20624;-53
2022/03/24 06:34:02;;;;;;;32.20;22.63;;;5.50;99.90;;;6.56;72.37;-19950.25;5012009;28;20206;-56
2022/03/24 06:36:37;;;;;;;31.57;22.33;;;5.60;99.90;;;6.49;73.00;-19947.84;5012830;28;20190;-58
2022/03/24 06:39:05;;;;;;;33.17;22.87;;;5.70;99.90;;;6.49;72.57;-19947.69;5011901;28;20313;-55
2022/03/24 06:41:34;;;;;;;31.53;21.77;;;5.70;99.90;;;6.50;72.44;-19948.19;5012140;28;20234;-56
2022/03/24 06:44:05;;;;;;;30.23;22.43;;;5.80;99.90;;;6.56;72.33;-19950.25;5012179;28;20323;-55
2022/03/24 06:46:34;;;;;;;31.80;22.27;;;5.80;99.90;;;6.79;71.13;-19958.13;5011863;28;20310;-58
2022/03/24 06:49:03;;;;;;;34.27;22.20;;;5.90;99.90;;;7.27;68.40;-19974.50;5011694;28;20756;-57
2022/03/24 06:51:31;;;;;;;33.87;21.70;;;6.10;99.90;;;7.24;68.75;-19973.31;5012346;28;20303;-58
2022/03/24 06:54:01;;;;;;;30.57;22.07;;;6.10;99.90;;;7.25;68.87;-19973.84;5011342;28;20232;-56
2022/03/24 06:56:30;;;;;;;34.77;22.27;;;6.20;99.90;;;7.41;67.93;-19979.13;5012097;28;20255;-56
2022/03/24 06:58:57;;;;;;;31.53;21.90;;;6.30;99.90;;;7.28;68.90;-19974.84;4992885;28;20254;-54
2022/03/24 07:01:25;;;;;;;31.13;22.27;;;6.30;99.90;;;7.35;68.35;-19977.25;5003236;28;20314;-60
2022/03/24 07:03:54;;;;;;;34.83;22.30;;;6.40;99.90;;;7.55;67.38;-19983.75;5012040;28;20212;-58
2022/03/24 07:06:23;;;;;;;31.73;23.20;;;6.50;99.90;;;7.90;66.20;-19995.88;5011065;28;20209;-57
2022/03/24 07:08:50;;;;;;;29.50;21.90;;;6.60;99.90;;;7.92;65.75;-19996.56;5011584;28;20259;-58
2022/03/24 07:11:20;;;;;;;36.07;24.37;;;6.70;99.90;;;7.80;65.67;-19992.28;5011856;28;20259;-60
2022/03/24 07:13:49;;;;;;;33.90;23.07;;;6.80;99.90;;;7.75;66.77;-19990.56;5011771;28;20269;-58
2022/03/24 07:16:17;;;;;;;30.53;22.47;;;6.80;99.90;;;7.71;67.07;-19989.38;5011770;28;20226;-56
2022/03/24 07:18:45;;;;;;;29.67;22.40;;;6.80;99.90;;;7.82;66.99;-19992.97;5011983;28;20211;-56
2022/03/24 07:21:14;;;;;;;34.60;22.97;;;6.90;99.90;;;7.91;66.37;-19996.22;5011474;28;20266;-59
2022/03/24 07:23:42;;;;;;;30.07;21.50;;;7.00;99.90;;;7.99;66.53;-19998.94;5011758;28;20596;-58
2022/03/24 07:26:10;;;;;;;32.53;23.70;;;7.00;99.90;;;8.10;65.77;-20002.72;5011534;28;20331;-57
2022/03/24 07:28:39;;;;;;;34.60;23.73;;;7.10;99.90;;;8.29;64.84;-20009.22;5011487;28;20240;-56
2022/03/24 07:31:14;;;;;;;39.37;25.43;;;7.30;99.90;;;8.55;62.83;-20018.09;5011211;28;20288;-59
2022/03/24 07:33:44;;;;;;;32.97;24.00;;;7.40;99.90;;;8.50;63.32;-20016.38;5012334;28;20577;-59
2022/03/24 07:36:12;;;;;;;34.40;23.87;;;7.60;99.90;;;8.58;63.12;-20019.13;4991696;28;20236;-57
2022/03/24 07:38:40;;;;;;;33.93;24.80;;;7.70;99.90;;;8.73;62.92;-20023.91;4991663;28;20243;-59
2022/03/24 07:41:09;;;;;;;32.40;23.43;;;7.80;99.90;;;8.87;62.82;-20028.84;4991571;28;20234;-63
2022/03/24 07:43:37;;;;;;;41.80;27.20;;;7.90;99.90;;;9.04;62.24;-20034.66;4994036;28;20305;-61
2022/03/24 07:46:06;;;;;;;34.30;25.10;;;8.00;99.90;;;9.18;61.85;-20039.44;4991200;28;20569;-57
2022/03/24 07:48:34;;;;;;;34.73;25.30;;;8.20;99.90;;;9.27;61.07;-20042.53;4992326;28;20202;-57
2022/03/24 07:51:02;;;;;;;34.70;24.90;;;8.30;99.90;;;9.44;60.35;-20048.31;4991152;28;20312;-58
2022/03/24 07:53:54;;;;;;;36.77;25.70;;;8.40;99.90;;;9.53;59.33;-20051.22;4991674;28;20230;-60
2022/03/24 07:56:25;;;;;;;35.00;25.30;;;8.50;99.90;;;9.66;59.07;-20055.66;4991930;28;20333;-57
2022/03/24 07:58:54;;;;;;;34.07;24.43;;;8.60;99.90;;;9.75;58.73;-20058.75;5010759;28;20234;-51
2022/03/24 08:01:30;;;;;;;36.70;25.87;;;8.70;99.90;;;9.91;58.92;-20064.03;4999606;28;20226;-56
2022/03/24 08:04:00;;;;;;;37.67;26.10;;;8.80;99.90;;;10.05;57.90;-20068.81;4991747;28;20214;-55
2022/03/24 08:06:30;;;;;;;36.57;26.40;;;8.90;99.90;;;10.13;57.12;-20071.56;4991741;28;20234;-56
2022/03/24 08:08:59;;;;;;;32.50;24.27;;;9.10;99.90;;;10.17;57.22;-20073.09;4990902;28;20231;-54
2022/03/24 08:11:28;;;;;;;35.43;26.80;;;9.10;99.90;;;10.29;56.84;-20077.19;4990929;28;20334;-57
2022/03/24 08:13:57;;;;;;;33.67;25.37;;;9.30;99.90;;;10.41;56.71;-20081.31;4991052;28;20257;-55
2022/03/24 08:16:27;;;;;;;36.47;26.60;;;9.30;99.90;;;10.74;54.30;-20092.56;4990533;28;20228;-55
2022/03/24 08:18:56;;;;;;;38.13;27.20;;;9.40;99.90;;;10.78;54.42;-20093.94;4990438;28;20671;-56
2022/03/24 08:21:24;;;;;;;38.63;27.50;;;9.50;99.90;;;10.71;54.56;-20091.38;4991044;28;21028;-56
2022/03/24 08:23:53;;;;;;;36.70;25.97;;;9.50;99.90;;;10.76;54.64;-20093.09;4991039;28;20235;-55
2022/03/24 08:26:22;;;;;;;36.73;26.57;;;9.60;99.90;;;10.80;54.78;-20094.44;4991446;28;20326;-54
2022/03/24 08:28:55;;;;;;;35.63;26.37;;;9.60;99.90;;;10.93;54.10;-20099.06;5010441;28;20641;-57
2022/03/24 08:31:24;;;;;;;34.23;26.50;;;9.80;99.90;;;11.07;54.08;-20103.69;5010382;28;20218;-61
2022/03/24 08:33:53;;;;;;;31.77;24.47;;;9.90;99.90;;;11.18;54.14;-20107.25;5010303;28;20725;-61
2022/03/24 08:36:21;;;;;;;38.20;26.80;;;9.90;99.90;;;11.42;52.89;-20115.63;5011153;28;20194;-60
2022/03/24 08:38:49;;;;;;;38.00;26.30;;;10.10;99.90;;;11.52;52.58;-20118.88;5010306;28;20336;-60
2022/03/24 08:41:17;;;;;;;37.80;25.57;;;10.20;99.90;;;11.70;51.87;-20125.19;5023474;28;20588;-61
2022/03/24 08:43:45;;;;;;;36.17;27.17;;;10.40;99.90;;;11.77;51.48;-20127.59;5030317;28;20221;-54
2022/03/24 08:46:13;;;;;;;37.20;26.67;;;10.50;99.90;;;11.84;52.28;-20129.81;5030436;28;20340;-53
2022/03/24 08:48:42;;;;;;;39.53;27.03;;;10.60;99.90;;;12.05;51.45;-20137.16;5030431;28;20244;-60
2022/03/24 08:51:16;;;;;;;36.63;26.20;;;10.70;99.90;;;12.07;50.71;-20137.84;5029822;28;20226;-59
2022/03/24 08:53:44;;;;;;;36.97;27.80;;;10.70;99.90;;;12.09;50.75;-20138.50;5020429;28;20685;-55
2022/03/24 08:56:13;;;;;;;37.97;25.67;;;10.80;99.90;;;12.26;49.84;-20144.31;5010016;28;20233;-56
2022/03/24 08:58:41;;;;;;;34.37;26.43;;;10.90;99.90;;;12.33;50.06;-20146.38;5010066;28;20276;-54
2022/03/24 09:01:10;;;;;;;41.30;28.13;;;11.00;99.90;;;12.47;49.51;-20151.31;5000292;28;20714;-55
2022/03/24 09:03:39;;;;;;;36.90;27.17;;;11.20;99.90;;;12.45;49.20;-20150.47;4991454;28;20594;-60
2022/03/24 09:06:09;;;;;;;39.60;28.13;;;11.10;99.90;;;12.38;49.59;-20148.25;4989904;28;20254;-59
2022/03/24 09:08:39;;;;;;;36.40;26.53;;;11.10;99.90;;;12.54;49.46;-20153.53;4990308;28;20260;-60
2022/03/24 09:11:09;;;;;;;37.50;27.83;;;11.10;99.90;;;12.56;48.82;-20154.41;4990311;28;20548;-56
2022/03/24 09:13:37;;;;;;;36.23;26.83;;;11.20;99.90;;;12.73;48.70;-20160.19;4990571;28;20318;-56
2022/03/24 09:16:06;;;;;;;35.03;26.30;;;11.40;99.90;;;12.89;48.23;-20165.66;4990272;28;20291;-55
2022/03/24 09:18:35;;;;;;;38.93;27.77;;;11.60;99.90;;;13.22;46.74;-20176.75;4991152;28;20218;-62
2022/03/24 09:21:03;;;;;;;37.87;27.53;;;11.70;99.90;;;13.04;47.16;-20170.63;4990409;28;20235;-64
2022/03/24 09:23:31;;;;;;;38.43;26.63;;;11.80;99.90;;;13.02;47.33;-20170.09;4998234;28;20230;-64
2022/03/24 09:26:01;;;;;;;37.00;26.03;;;11.70;99.90;;;13.13;47.13;-20173.88;5010225;28;20250;-63
2022/03/24 09:28:51;;;;;;;34.23;25.53;;;11.80;99.90;;;13.31;46.36;-20180.00;5010341;28;20246;-64
2022/03/24 09:31:19;;;;;;;35.57;24.70;;;11.90;99.90;;;13.25;45.93;-20177.78;5012825;28;20250;-63
2022/03/24 09:33:48;;;;;;;39.43;25.83;;;11.90;99.90;;;13.32;45.88;-20180.19;5013938;28;20203;-64
2022/03/24 09:36:16;;;;;;;34.03;24.87;;;12.00;99.90;;;13.40;46.09;-20182.91;5013470;28;20281;-64
2022/03/24 09:38:44;;;;;;;36.00;26.47;;;12.10;99.90;;;13.59;45.47;-20189.41;5013287;28;20809;-54
2022/03/24 09:41:16;;;;;;;35.30;25.40;;;12.20;99.90;;;13.64;46.02;-20191.09;5013354;28;20635;-58
2022/03/24 09:43:46;;;;;;;35.50;25.17;;;12.30;99.90;;;13.76;46.27;-20195.19;5013366;28;20257;-57
2022/03/24 09:46:16;;;;;;;35.53;25.30;;;12.40;99.90;;;13.87;45.75;-20198.94;5012786;28;20328;-57
2022/03/24 09:48:44;;;;;;;33.83;25.57;;;12.50;99.90;;;13.85;45.97;-20198.09;5013913;28;20203;-56
2022/03/24 09:51:13;;;;;;;33.33;26.47;;;12.50;99.90;;;13.91;45.73;-20200.31;5012984;28;20222;-57
2022/03/24 09:53:41;;;;;;;34.97;25.00;;;12.60;99.90;;;14.00;46.06;-20203.22;5013338;28;20234;-57
2022/03/24 09:56:10;;;;;;;34.67;26.00;;;12.60;99.90;;;13.99;46.55;-20203.06;5012929;28;20622;-55
2022/03/24 09:58:42;;;;;;;35.87;26.50;;;12.70;99.90;;;14.15;46.00;-20208.34;5013038;28;20237;-60
2022/03/24 10:01:17;;;;;;;38.97;25.00;;;12.80;99.90;;;14.44;45.07;-20218.25;5002740;28;20223;-62
2022/03/24 10:04:08;;;;;;;35.43;25.43;;;12.90;99.90;;;14.27;45.43;-20212.44;4994037;28;20212;-58
2022/03/24 10:06:40;;;;;;;36.83;26.67;;;13.00;99.90;;;14.33;45.54;-20214.66;4993543;28;20294;-59
2022/03/24 10:09:08;;;;;;;33.97;24.90;;;12.90;99.90;;;14.44;45.31;-20218.25;4993171;28;20310;-58
2022/03/24 10:11:37;;;;;;;36.40;25.30;;;13.10;99.90;;;14.60;45.29;-20223.88;4993208;28;20260;-57
2022/03/24 10:14:06;;;;;;;35.37;25.23;;;13.20;99.90;;;14.76;44.12;-20229.00;4999325;28;20231;-56
2022/03/24 10:16:43;;;;;;;32.30;24.83;;;13.20;99.90;;;14.67;44.95;-20226.09;5007309;28;20227;-57
2022/03/24 10:19:15;;;;;;;33.43;24.47;;;13.30;99.90;;;14.55;44.91;-20222.16;5012395;28;20230;-62